sim
Sign-in with your pilot id or email,
or register
Callsign
Passwort

Schedule Details

Flight Number: EWG7000 (1)
Departure: Hamburg Airport (EDDH) at 06:10
Arrival: Munich Airport (EDDM) at 07:35
Route: Eurowings Passenger Schedule. Enter filed route here before submitting Pirep.

Weather Information
Getting current METAR information for EDDH 261950Z 35010KT 320V030 7000 -RADZ FEW005 BKN006 13/12 Q0991 TEMPO 34015G25KT 4500
Getting current METAR information for EDDM 261950Z 24017KT 9999 -RA BKN022 BKN035 07/04 Q1001 NOSIG

Schedule Frequency

Route Map